CheckWX is a tool to help pilots better visualize weather data.  It is not intended as a substitute for an official pre-flight weather briefing.

20:16:55 UTC

KLNS METAR
Lancaster Airport
Lancaster, Pennsylvania, USA
Current

24 mins ago

KLNS 291953Z 36007G14KT 10SM CLR 06/M07 A3007 RMK AO2 SLP185 T00611072
Observed
Jan-29 @ 19:53 UTC
Wind
  • 360° at 7 KTS
  • Gusting to 14 KTS
Visibility
10 SM
Flight Rules
VFR
Cloud Levels
  • Clear skies
Temperature
C / 43°F
Dewpoint
-7°C / 19°F
Humidity
39%
Altimeter
30.07" Hg
Pressure
1018.32 hPa
Previous

1 hour ago

KLNS 291853Z 36011G17KT 330V040 10SM CLR 06/M07 A3007 RMK AO2 SLP185 T00611067
Observed
Jan-29 @ 18:53 UTC
Wind
  • 360° at 11 KTS
  • Gusting to 17 KTS
Visibility
10 SM
Flight Rules
VFR
Cloud Levels
  • Clear skies
Temperature
C / 43°F
Dewpoint
-7°C / 19°F
Humidity
39%
Altimeter
30.07" Hg
Pressure
1018.32 hPa
Previous

2 hours ago

KLNS 291753Z 34010G16KT 10SM CLR 06/M07 A3009 RMK AO2 SLP192 T00561067 10061 20017 58010
Observed
Jan-29 @ 17:53 UTC
Wind
  • 340° at 10 KTS
  • Gusting to 16 KTS
Visibility
10 SM
Flight Rules
VFR
Cloud Levels
  • Clear skies
Temperature
C / 43°F
Dewpoint
-7°C / 19°F
Humidity
39%
Altimeter
30.09" Hg
Pressure
1018.92 hPa